Time;durP1;ratioP1;P1;durP2;ratioP2;P2;SDS_P1;SDS_P2;PMS_P1;PMS_P2;Temp;Humidity;BMP_temperature;BMP_pressure;BME280_temperature;BME280_humidity;BME280_pressure;Samples;Min_cycle;Max_cycle;Signal;HPM_P1;HPM_P2
2021/03/21 00:00:18;;;;;;;4.70;3.80;;;4.40;55.00;;;;;;5094913;28;20046;-76
2021/03/21 00:02:44;;;;;;;4.90;3.78;;;4.40;55.00;;;;;;5113559;28;20365;-75
2021/03/21 00:05:10;;;;;;;4.30;3.42;;;4.40;54.90;;;;;;5112992;28;20094;-76
2021/03/21 00:07:36;;;;;;;5.13;2.90;;;4.40;54.70;;;;;;5113038;28;20043;-76
2021/03/21 00:10:04;;;;;;;4.07;3.38;;;4.40;54.50;;;;;;5103606;28;20060;-76
2021/03/21 00:12:30;;;;;;;4.43;2.83;;;4.40;54.30;;;;;;5095645;28;20039;-76
2021/03/21 00:14:56;;;;;;;6.63;4.10;;;4.40;54.10;;;;;;5096089;28;20028;-75
2021/03/21 00:17:22;;;;;;;3.72;2.90;;;4.40;53.90;;;;;;5112758;28;20438;-76
2021/03/21 00:19:48;;;;;;;3.53;3.10;;;4.40;53.70;;;;;;5079212;28;20069;-75
2021/03/21 00:22:14;;;;;;;4.03;3.20;;;4.40;53.60;;;;;;5096988;28;20392;-75
2021/03/21 00:24:40;;;;;;;5.03;3.22;;;4.40;53.70;;;;;;5096615;28;20133;-73
2021/03/21 00:27:06;;;;;;;3.03;2.72;;;4.40;53.50;;;;;;5096768;28;20193;-76
2021/03/21 00:29:32;;;;;;;4.35;3.17;;;4.40;53.70;;;;;;5078842;28;20043;-77
2021/03/21 00:31:58;;;;;;;4.32;3.08;;;4.40;53.50;;;;;;5096908;28;20408;-76
2021/03/21 00:34:24;;;;;;;5.38;3.20;;;4.40;53.60;;;;;;5096517;28;20044;-76
2021/03/21 00:36:50;;;;;;;5.05;3.40;;;4.40;53.50;;;;;;5096728;28;20043;-77
2021/03/21 00:39:16;;;;;;;3.30;3.00;;;4.40;54.00;;;;;;5078524;28;20093;-75
2021/03/21 00:41:42;;;;;;;3.35;3.05;;;4.30;53.40;;;;;;5078553;28;20427;-74
2021/03/21 00:44:07;;;;;;;3.55;2.80;;;4.30;53.40;;;;;;5096543;28;20082;-74
2021/03/21 00:46:33;;;;;;;3.10;2.67;;;4.30;53.30;;;;;;5096357;28;20031;-74
2021/03/21 00:48:59;;;;;;;4.85;3.33;;;4.30;53.20;;;;;;5078498;28;20036;-74
2021/03/21 00:51:25;;;;;;;3.28;2.95;;;4.30;53.10;;;;;;5096474;28;20032;-74
2021/03/21 00:53:51;;;;;;;3.20;2.78;;;4.30;53.20;;;;;;5096402;28;20085;-73
2021/03/21 00:56:41;;;;;;;3.15;2.85;;;4.20;53.40;;;;;;5078077;28;20085;-74
2021/03/21 00:59:08;;;;;;;3.35;2.65;;;4.20;53.50;;;;;;5067989;28;20044;-74
2021/03/21 01:01:35;;;;;;;3.45;3.13;;;4.20;53.60;;;;;;5077884;28;20462;-76
2021/03/21 01:04:03;;;;;;;3.13;2.70;;;4.20;53.60;;;;;;5096138;28;20055;-75
2021/03/21 01:06:29;;;;;;;3.10;2.67;;;4.10;53.80;;;;;;5111814;28;20043;-76
2021/03/21 01:08:58;;;;;;;5.38;3.22;;;4.10;53.70;;;;;;5097897;27;20047;-76
2021/03/21 01:11:29;;;;;;;6.55;3.22;;;4.10;53.80;;;;;;5107710;28;20063;-75
2021/03/21 01:13:55;;;;;;;3.35;2.60;;;4.10;53.70;;;;;;5096471;28;20058;-76
2021/03/21 01:16:25;;;;;;;5.22;3.30;;;4.10;53.50;;;;;;5095996;28;20040;-76
2021/03/21 01:18:52;;;;;;;3.47;2.72;;;4.00;53.60;;;;;;5096022;28;20131;-77
2021/03/21 01:21:18;;;;;;;2.90;2.60;;;4.00;53.40;;;;;;5095725;28;20057;-75
2021/03/21 01:23:45;;;;;;;4.28;3.08;;;4.00;53.30;;;;;;5111763;28;20031;-76
2021/03/21 01:26:18;;;;;;;4.57;3.40;;;4.00;53.30;;;;;;5094604;28;20117;-77
2021/03/21 01:28:44;;;;;;;5.15;3.30;;;4.00;53.30;;;;;;5095607;28;20504;-76
2021/03/21 01:31:14;;;;;;;3.95;3.28;;;3.90;53.20;;;;;;5095675;28;20043;-74
2021/03/21 01:33:41;;;;;;;3.85;3.03;;;3.90;53.30;;;;;;5110903;28;20043;-74
2021/03/21 01:36:18;;;;;;;4.63;3.15;;;3.90;53.10;;;;;;5111426;28;20094;-75
2021/03/21 01:38:44;;;;;;;4.57;3.00;;;3.90;53.10;;;;;;5095634;28;20038;-76
2021/03/21 01:41:31;;;;;;;3.20;2.78;;;3.80;53.20;;;;;;5095254;28;20119;-75
2021/03/21 01:43:57;;;;;;;4.00;3.30;;;3.80;53.20;;;;;;5077151;28;20550;-75
2021/03/21 01:46:56;;;;;;;4.32;2.90;;;3.80;53.30;;;;;;5095023;28;20495;-75
2021/03/21 01:49:43;;;;;;;6.00;3.25;;;3.80;53.40;;;;;;5061017;28;20507;-74
2021/03/21 01:52:20;;;;;;;3.97;3.10;;;3.80;53.30;;;;;;5110983;28;20059;-76
2021/03/21 01:54:45;;;;;;;3.75;2.92;;;3.80;53.50;;;;;;5095154;28;20119;-76
2021/03/21 01:57:12;;;;;;;4.82;3.55;;;3.80;53.50;;;;;;5095476;28;20111;-76
2021/03/21 01:59:38;;;;;;;4.78;3.50;;;3.70;53.60;;;;;;5094900;28;20044;-80
2021/03/21 02:02:04;;;;;;;4.70;3.22;;;3.70;53.70;;;;;;5095344;28;20534;-76
2021/03/21 02:04:30;;;;;;;6.28;3.58;;;3.70;53.80;;;;;;5094984;28;20044;-75
2021/03/21 02:07:05;;;;;;;5.63;3.60;;;3.70;53.90;;;;;;5076742;28;20491;-77
2021/03/21 02:09:36;;;;;;;4.70;3.47;;;3.70;53.90;;;;;;5095156;27;20531;-77
2021/03/21 02:12:39;;;;;;;4.65;3.85;;;3.70;54.00;;;;;;5108021;28;20285;-77
2021/03/21 02:15:40;;;;;;;6.15;3.58;;;3.70;54.00;;;;;;5095283;28;20097;-77
2021/03/21 02:18:06;;;;;;;5.63;3.45;;;3.70;53.80;;;;;;5077566;28;20047;-78
2021/03/21 02:21:06;;;;;;;5.05;3.15;;;3.70;53.80;;;;;;5094616;28;20072;-77
2021/03/21 02:23:53;;;;;;;3.95;3.25;;;3.70;53.60;;;;;;5086657;28;20063;-75
2021/03/21 02:26:56;;;;;;;4.57;3.20;;;3.60;53.50;;;;;;5094755;28;20043;-74
2021/03/21 02:29:26;;;;;;;4.22;3.03;;;3.60;53.40;;;;;;5076927;28;20040;-75
2021/03/21 02:31:55;;;;;;;4.05;3.05;;;3.60;53.30;;;;;;5097834;28;20036;-76
2021/03/21 02:34:35;;;;;;;5.68;3.40;;;3.60;53.20;;;;;;5099491;28;20381;-76
2021/03/21 02:37:33;;;;;;;3.75;3.22;;;3.60;53.10;;;;;;5094196;28;20113;-75
2021/03/21 02:40:34;;;;;;;5.50;3.30;;;3.50;53.00;;;;;;5094210;28;20070;-75
2021/03/21 02:43:13;;;;;;;5.18;3.25;;;3.60;53.00;;;;;;5073906;28;20395;-75
2021/03/21 02:45:41;;;;;;;4.57;3.40;;;3.60;52.90;;;;;;5094335;28;20135;-75
2021/03/21 02:48:19;;;;;;;4.22;3.15;;;3.50;52.80;;;;;;5094179;28;20127;-74
2021/03/21 02:50:52;;;;;;;3.70;2.70;;;3.50;52.80;;;;;;5075979;28;20035;-74
2021/03/21 02:53:44;;;;;;;3.65;2.90;;;3.60;52.60;;;;;;5076011;28;20051;-75
2021/03/21 02:56:13;;;;;;;4.35;3.30;;;3.50;52.60;;;;;;5059404;28;20107;-76
2021/03/21 02:59:07;;;;;;;4.85;2.72;;;3.60;52.40;;;;;;5075524;28;20028;-76
2021/03/21 03:01:38;;;;;;;3.72;2.80;;;3.60;52.30;;;;;;5093724;28;20127;-74
2021/03/21 03:04:10;;;;;;;4.18;2.60;;;3.50;52.30;;;;;;5076107;28;20042;-74
2021/03/21 03:06:50;;;;;;;3.20;2.58;;;3.60;52.40;;;;;;5093720;28;20484;-75
2021/03/21 03:09:25;;;;;;;3.38;2.60;;;3.50;52.50;;;;;;5093536;28;20492;-75
2021/03/21 03:11:56;;;;;;;3.33;2.95;;;3.50;52.60;;;;;;5099074;27;20044;-75
2021/03/21 03:14:35;;;;;;;5.90;3.63;;;3.50;52.60;;;;;;5102619;28;20154;-75
2021/03/21 03:17:04;;;;;;;4.47;3.05;;;3.40;52.70;;;;;;5093868;28;20043;-75
2021/03/21 03:19:52;;;;;;;4.53;3.35;;;3.40;52.70;;;;;;5093739;28;20063;-72
2021/03/21 03:22:42;;;;;;;5.55;3.47;;;3.40;52.80;;;;;;5104835;28;20432;-75
2021/03/21 03:25:08;;;;;;;3.90;2.72;;;3.40;52.90;;;;;;5093398;28;20078;-74
2021/03/21 03:27:42;;;;;;;5.47;3.35;;;3.40;52.90;;;;;;5093329;28;20097;-73
2021/03/21 03:30:16;;;;;;;4.63;3.15;;;3.40;52.90;;;;;;5058966;28;20040;-74
2021/03/21 03:32:43;;;;;;;4.50;3.33;;;3.40;53.00;;;;;;5108996;28;20036;-74
2021/03/21 03:35:12;;;;;;;4.18;3.00;;;3.30;52.90;;;;;;5093522;28;20129;-74
2021/03/21 03:37:38;;;;;;;4.63;2.70;;;3.30;53.00;;;;;;5091873;28;20087;-74
2021/03/21 03:40:07;;;;;;;5.63;3.03;;;3.40;53.10;;;;;;5109334;28;20472;-74
2021/03/21 03:43:00;;;;;;;3.47;2.70;;;3.40;53.10;;;;;;5108654;28;20035;-74
2021/03/21 03:45:35;;;;;;;3.72;2.72;;;3.40;53.20;;;;;;5093092;28;20079;-75
2021/03/21 03:48:09;;;;;;;3.83;2.90;;;3.30;53.80;;;;;;5074677;28;20036;-75
2021/03/21 03:50:48;;;;;;;3.40;2.67;;;3.30;53.30;;;;;;5093334;28;20096;-74
2021/03/21 03:53:32;;;;;;;4.45;2.53;;;3.40;53.40;;;;;;5093156;28;20039;-74
2021/03/21 03:56:14;;;;;;;4.95;2.95;;;3.40;53.40;;;;;;5092617;28;20074;-75
2021/03/21 03:58:46;;;;;;;3.75;2.85;;;3.30;53.40;;;;;;5074924;28;20070;-75
2021/03/21 04:01:15;;;;;;;3.53;2.55;;;3.40;53.40;;;;;;5092748;28;20028;-75
2021/03/21 04:04:03;;;;;;;3.20;2.63;;;3.40;53.50;;;;;;5108797;28;20071;-76
2021/03/21 04:06:47;;;;;;;3.00;2.67;;;3.40;53.50;;;;;;5074651;28;20043;-75
2021/03/21 04:09:18;;;;;;;5.32;3.00;;;3.40;53.50;;;;;;5108795;28;20044;-73
2021/03/21 04:12:06;;;;;;;3.65;2.53;;;3.50;53.50;;;;;;5095520;28;20024;-74
2021/03/21 04:14:48;;;;;;;7.57;3.78;;;3.50;53.60;;;;;;5102670;28;20044;-73
2021/03/21 04:17:27;;;;;;;3.92;2.97;;;3.50;53.70;;;;;;5085726;28;20036;-74
2021/03/21 04:20:14;;;;;;;3.88;2.72;;;3.60;53.70;;;;;;5085221;28;20042;-75
2021/03/21 04:23:18;;;;;;;3.35;2.78;;;3.60;53.70;;;;;;5075231;28;20480;-75
2021/03/21 04:25:55;;;;;;;4.35;3.30;;;3.70;53.80;;;;;;5093240;28;20051;-74
2021/03/21 04:28:33;;;;;;;4.82;2.83;;;3.70;53.80;;;;;;5092722;28;20044;-73
2021/03/21 04:31:03;;;;;;;4.18;2.75;;;3.70;53.70;;;;;;5092403;28;20035;-72
2021/03/21 04:33:38;;;;;;;4.15;2.90;;;3.80;53.70;;;;;;5092613;28;20412;-74
2021/03/21 04:36:09;;;;;;;3.40;2.80;;;3.90;53.60;;;;;;5099082;28;20047;-71
2021/03/21 04:38:40;;;;;;;2.88;2.53;;;3.90;53.60;;;;;;5103903;28;20028;-71
2021/03/21 04:41:10;;;;;;;3.50;2.67;;;4.10;53.40;;;;;;5103824;28;20030;-74
2021/03/21 04:43:56;;;;;;;3.28;2.60;;;4.10;53.30;;;;;;5092262;28;20066;-77
2021/03/21 04:46:27;;;;;;;4.57;3.05;;;4.20;53.10;;;;;;5071109;28;20040;-72
2021/03/21 04:48:55;;;;;;;3.35;2.50;;;4.20;53.10;;;;;;5092169;28;20044;-73
2021/03/21 04:51:43;;;;;;;5.38;3.05;;;4.30;52.90;;;;;;5091869;28;20602;-72
2021/03/21 04:54:22;;;;;;;3.78;2.83;;;4.40;52.50;;;;;;5093693;28;20123;-75
2021/03/21 04:57:09;;;;;;;3.45;2.95;;;4.50;52.40;;;;;;5109432;28;20036;-76
2021/03/21 04:59:37;;;;;;;2.70;2.35;;;4.60;52.20;;;;;;5096143;28;20156;-75
2021/03/21 05:02:12;;;;;;;4.18;2.63;;;4.70;52.10;;;;;;5076833;28;20035;-76
2021/03/21 05:04:52;;;;;;;3.05;2.58;;;4.70;52.00;;;;;;5111391;28;20507;-73
2021/03/21 05:07:23;;;;;;;3.00;2.60;;;4.80;51.60;;;;;;5107437;27;20400;-72
2021/03/21 05:09:53;;;;;;;3.35;2.40;;;4.90;51.50;;;;;;5106454;28;20038;-75
2021/03/21 05:12:22;;;;;;;4.43;2.47;;;5.00;51.50;;;;;;5096222;28;20031;-72
2021/03/21 05:15:15;;;;;;;2.58;2.38;;;5.10;51.30;;;;;;5113992;28;20044;-73
2021/03/21 05:18:18;;;;;;;3.35;3.00;;;5.20;51.10;;;;;;5086297;28;20400;-73
2021/03/21 05:21:07;;;;;;;4.45;3.08;;;5.30;50.70;;;;;;5093743;28;20058;-72
2021/03/21 05:23:42;;;;;;;4.07;2.80;;;5.40;50.70;;;;;;5065796;28;20397;-74
2021/03/21 05:26:15;;;;;;;;;;;5.50;50.70;;;;;;5087097;28;20399;-75
2021/03/21 05:29:09;;;;;;;3.20;2.47;;;5.60;50.50;;;;;;5113908;28;19922;-73
2021/03/21 05:31:36;;;;;;;3.13;2.67;;;5.60;50.10;;;;;;5113828;28;20020;-73
2021/03/21 05:34:02;;;;;;;2.90;2.25;;;5.70;50.10;;;;;;5113690;28;20030;-70
2021/03/21 05:36:57;;;;;;;3.47;2.70;;;5.80;50.00;;;;;;5114310;28;20035;-72
2021/03/21 05:40:08;;;;;;;3.78;3.00;;;5.80;49.90;;;;;;5114172;28;20039;-72
2021/03/21 05:42:58;;;;;;;3.30;2.85;;;5.90;49.60;;;;;;5110913;28;20039;-74
2021/03/21 05:45:55;;;;;;;3.75;2.58;;;6.10;49.40;;;;;;5093070;28;20051;-74
2021/03/21 05:48:51;;;;;;;3.92;2.63;;;6.20;49.00;;;;;;5093230;28;20380;-75
2021/03/21 05:51:42;;;;;;;3.75;2.80;;;6.30;48.80;;;;;;5093262;27;20562;-78
2021/03/21 05:54:26;;;;;;;3.03;2.58;;;6.40;48.60;;;;;;5093365;28;20170;-73
2021/03/21 05:57:34;;;;;;;3.05;2.53;;;6.60;48.50;;;;;;5097563;28;20039;-72
2021/03/21 06:00:34;;;;;;;2.58;2.38;;;6.90;48.10;;;;;;5097235;28;20138;-72
2021/03/21 06:03:24;;;;;;;3.00;2.53;;;7.20;47.40;;;;;;5115122;28;20040;-69
2021/03/21 06:06:15;;;;;;;2.80;2.28;;;7.40;47.20;;;;;;5096470;28;20123;-70
2021/03/21 06:09:08;;;;;;;2.30;2.00;;;7.60;46.50;;;;;;5114723;28;20039;-74
2021/03/21 06:12:07;;;;;;;2.22;2.05;;;7.80;45.90;;;;;;5114115;28;20032;-71
2021/03/21 06:15:04;;;;;;;3.15;2.58;;;8.00;45.50;;;;;;5114538;28;20031;-71
2021/03/21 06:17:45;;;;;;;3.08;2.60;;;8.20;45.10;;;;;;5110910;27;20122;-69
2021/03/21 06:20:32;;;;;;;4.45;2.72;;;8.40;44.50;;;;;;5105243;27;20089;-71
2021/03/21 06:23:27;;;;;;;3.10;2.05;;;8.70;44.70;;;;;;5082315;28;20128;-70
2021/03/21 06:26:34;;;;;;;2.38;2.10;;;9.00;43.10;;;;;;5064265;28;20044;-70
2021/03/21 06:29:24;;;;;;;4.90;2.60;;;9.20;43.30;;;;;;5100167;28;20057;-70
2021/03/21 06:32:04;;;;;;;2.58;2.15;;;9.40;42.70;;;;;;5077324;28;20040;-69
2021/03/21 06:34:47;;;;;;;3.80;2.45;;;9.40;42.10;;;;;;5109803;28;20118;-70
2021/03/21 06:37:31;;;;;;;3.17;2.55;;;9.50;42.10;;;;;;5093842;28;20040;-71
2021/03/21 06:40:15;;;;;;;4.25;2.28;;;9.70;41.90;;;;;;5093530;28;20082;-70
2021/03/21 06:43:42;;;;;;;5.03;2.70;;;9.80;41.60;;;;;;5095460;27;20059;-70
2021/03/21 06:46:39;;;;;;;3.92;1.90;;;9.80;41.40;;;;;;5037973;28;20083;-66
2021/03/21 06:49:24;;;;;;;3.28;1.70;;;10.00;55.40;;;;;;5100577;28;20119;-66
2021/03/21 06:52:00;;;;;;;1.92;1.75;;;10.70;58.60;;;;;;5104413;28;20046;-70
2021/03/21 06:54:26;;;;;;;3.20;2.22;;;11.20;52.20;;;;;;5103840;28;20134;-69
2021/03/21 06:56:55;;;;;;;3.58;2.22;;;11.30;48.00;;;;;;5107237;27;20043;-69
2021/03/21 06:59:54;;;;;;;2.25;2.00;;;11.40;46.30;;;;;;5097633;27;20036;-70
2021/03/21 07:02:54;;;;;;;3.42;2.30;;;11.60;43.90;;;;;;5073811;28;20032;-71
2021/03/21 07:05:42;;;;;;;3.35;1.95;;;11.60;42.40;;;;;;5091441;28;20077;-69
2021/03/21 07:08:50;;;;;;;2.28;1.88;;;11.70;40.80;;;;;;5091484;28;20051;-71
2021/03/21 07:11:51;;;;;;;2.95;2.17;;;11.70;40.00;;;;;;5111584;28;20043;-70
2021/03/21 07:14:46;;;;;;;2.35;2.10;;;12.10;39.70;;;;;;5104017;28;20088;-71
2021/03/21 07:17:24;;;;;;;2.97;2.00;;;12.20;39.40;;;;;;5108810;28;20479;-68
2021/03/21 07:20:18;;;;;;;1.65;1.55;;;12.20;38.80;;;;;;5100359;27;20103;-73
2021/03/21 07:23:17;;;;;;;2.42;1.70;;;12.20;38.20;;;;;;5092527;28;20340;-71
2021/03/21 07:26:02;;;;;;;2.67;1.77;;;12.30;38.00;;;;;;5111579;28;20039;-71
2021/03/21 07:28:51;;;;;;;4.30;2.53;;;12.40;38.40;;;;;;5107119;28;20085;-71
2021/03/21 07:31:38;;;;;;;5.13;2.63;;;12.80;38.00;;;;;;5102495;28;20040;-72
2021/03/21 07:34:19;;;;;;;2.17;1.80;;;13.00;37.70;;;;;;5098108;28;20047;-79
2021/03/21 07:36:53;;;;;;;4.07;2.80;;;13.20;37.00;;;;;;5083353;28;20044;-74
2021/03/21 07:39:47;;;;;;;6.18;2.70;;;13.30;36.20;;;;;;5092388;28;20028;-73
2021/03/21 07:42:19;;;;;;;3.72;2.33;;;13.50;35.20;;;;;;5074463;28;20120;-76
2021/03/21 07:44:59;;;;;;;5.90;2.53;;;13.60;35.70;;;;;;5092616;28;20062;-79
2021/03/21 07:47:30;;;;;;;2.83;2.30;;;13.70;35.30;;;;;;5074522;28;20043;-75
2021/03/21 07:50:11;;;;;;;3.78;2.13;;;13.70;34.30;;;;;;5092382;28;20050;-79
2021/03/21 07:52:47;;;;;;;5.57;1.85;;;13.90;34.80;;;;;;5091710;28;20039;-77
2021/03/21 07:55:16;;;;;;;;;;;13.90;34.80;;;;;;5092906;28;20118;-72
2021/03/21 07:58:01;;;;;;;3.10;1.85;;;14.00;34.10;;;;;;5092333;28;19923;-74
2021/03/21 08:00:27;;;;;;;5.10;2.10;;;13.90;34.10;;;;;;5092641;28;20040;-77
2021/03/21 08:03:15;;;;;;;3.65;2.38;;;13.90;33.90;;;;;;5092647;28;20055;-74
2021/03/21 08:05:41;;;;;;;3.47;2.20;;;13.90;33.70;;;;;;5092767;28;20063;-75
2021/03/21 08:08:15;;;;;;;3.45;2.30;;;13.90;33.80;;;;;;5098970;28;20244;-74
2021/03/21 08:10:43;;;;;;;3.15;1.85;;;13.90;33.40;;;;;;5081115;28;20066;-76
2021/03/21 08:13:15;;;;;;;3.72;2.00;;;13.90;33.20;;;;;;5092078;28;20035;-75
2021/03/21 08:15:42;;;;;;;3.45;2.25;;;13.80;33.10;;;;;;5092705;28;20028;-76
2021/03/21 08:18:15;;;;;;;2.47;1.90;;;13.80;33.40;;;;;;5092897;28;20043;-74
2021/03/21 08:20:51;;;;;;;2.33;1.80;;;13.80;33.20;;;;;;5074718;28;20036;-79
2021/03/21 08:23:39;;;;;;;2.65;1.80;;;13.70;32.80;;;;;;5074618;28;20043;-82
2021/03/21 08:26:14;;;;;;;4.32;2.15;;;13.80;32.50;;;;;;5090963;28;20455;-85
2021/03/21 08:28:59;;;;;;;2.53;2.10;;;13.70;33.00;;;;;;5092136;28;20484;-80
2021/03/21 08:31:56;;;;;;;3.00;2.30;;;13.70;32.80;;;;;;5096104;28;20448;-81
2021/03/21 08:34:31;;;;;;;2.95;2.03;;;13.70;32.90;;;;;;5092186;28;20392;-83
2021/03/21 08:37:27;;;;;;;4.18;2.15;;;13.60;32.60;;;;;;5097836;28;20078;-79
2021/03/21 08:40:19;;;;;;;4.57;2.25;;;13.60;33.20;;;;;;5103985;28;20075;-80
2021/03/21 08:42:47;;;;;;;3.85;2.25;;;13.60;33.20;;;;;;5096540;28;20036;-71
2021/03/21 08:45:19;;;;;;;4.00;2.28;;;13.50;32.90;;;;;;5094597;28;20507;-72
2021/03/21 08:47:45;;;;;;;4.88;1.90;;;13.40;32.80;;;;;;5099652;28;20522;-71
2021/03/21 08:50:39;;;;;;;3.67;2.00;;;13.40;32.30;;;;;;5106219;28;20107;-75
2021/03/21 08:53:21;;;;;;;2.17;1.98;;;13.30;32.30;;;;;;5104592;28;20036;-71
2021/03/21 08:55:47;;;;;;;2.25;2.05;;;13.20;32.30;;;;;;5116502;28;20055;-71
2021/03/21 08:58:26;;;;;;;4.80;1.88;;;13.30;32.60;;;;;;5098271;28;20039;-70
2021/03/21 09:00:54;;;;;;;2.17;1.98;;;13.30;32.50;;;;;;5116263;28;20488;-73
2021/03/21 09:03:28;;;;;;;6.93;2.33;;;13.30;32.20;;;;;;5076486;27;20123;-77
2021/03/21 09:05:55;;;;;;;2.88;2.20;;;13.20;32.40;;;;;;5069933;28;20040;-73
2021/03/21 09:08:28;;;;;;;4.05;2.03;;;13.20;32.30;;;;;;5095747;28;20028;-75
2021/03/21 09:11:00;;;;;;;3.42;2.25;;;13.20;32.50;;;;;;5099626;28;20044;-73
2021/03/21 09:13:36;;;;;;;3.17;2.00;;;13.10;32.40;;;;;;5106059;27;20031;-75
2021/03/21 09:16:02;;;;;;;3.92;1.95;;;13.00;32.20;;;;;;5086708;28;20476;-72
2021/03/21 09:18:32;;;;;;;3.72;2.00;;;13.00;32.50;;;;;;5095867;28;20032;-72
2021/03/21 09:21:23;;;;;;;3.10;1.90;;;12.90;32.90;;;;;;5095881;28;20051;-74
2021/03/21 09:23:56;;;;;;;2.70;1.80;;;12.90;33.20;;;;;;5067757;28;20505;-70
2021/03/21 09:26:28;;;;;;;2.30;1.63;;;12.80;33.20;;;;;;5095198;28;20039;-78
2021/03/21 09:29:01;;;;;;;2.25;1.95;;;12.70;33.10;;;;;;5076614;28;20066;-73
2021/03/21 09:31:28;;;;;;;2.13;1.73;;;12.60;33.30;;;;;;5110648;28;20122;-71
2021/03/21 09:34:19;;;;;;;3.40;1.65;;;12.60;33.40;;;;;;5106691;28;20027;-72
2021/03/21 09:37:06;;;;;;;2.92;1.63;;;12.40;33.20;;;;;;5094823;28;20511;-69
2021/03/21 09:39:35;;;;;;;3.05;2.10;;;12.30;33.20;;;;;;5085605;28;20048;-69
2021/03/21 09:42:05;;;;;;;3.88;1.92;;;12.30;34.60;;;;;;5086375;28;20082;-67
2021/03/21 09:44:33;;;;;;;5.55;1.98;;;12.20;34.30;;;;;;5094530;28;20063;-71
2021/03/21 09:47:18;;;;;;;4.32;2.00;;;12.20;34.00;;;;;;5093851;28;20047;-69
2021/03/21 09:50:01;;;;;;;7.40;2.40;;;12.10;34.30;;;;;;5094909;28;20397;-71
2021/03/21 09:52:50;;;;;;;3.83;1.77;;;12.10;34.40;;;;;;5097282;28;20122;-70
2021/03/21 09:55:33;;;;;;;3.83;2.40;;;11.90;34.30;;;;;;5095318;28;20031;-71
2021/03/21 09:58:36;;;;;;;3.83;1.98;;;11.90;34.10;;;;;;5090309;28;20543;-71
2021/03/21 10:01:22;;;;;;;4.22;2.13;;;11.80;34.10;;;;;;5094563;28;20040;-70
2021/03/21 10:04:03;;;;;;;2.05;1.58;;;11.70;34.40;;;;;;5112382;28;20407;-72
2021/03/21 10:06:35;;;;;;;2.47;1.90;;;11.50;34.60;;;;;;5079561;28;20092;-70
2021/03/21 10:09:13;;;;;;;3.92;1.70;;;11.50;34.70;;;;;;5096742;28;20028;-71
2021/03/21 10:11:42;;;;;;;3.03;2.10;;;11.40;34.80;;;;;;5115137;28;20103;-71
2021/03/21 10:14:29;;;;;;;4.07;1.65;;;11.40;35.00;;;;;;5115289;28;20058;-70
2021/03/21 10:16:58;;;;;;;1.83;1.52;;;11.40;34.70;;;;;;5096653;28;20043;-71
2021/03/21 10:19:44;;;;;;;3.53;1.83;;;11.40;34.50;;;;;;5114882;28;20038;-71
2021/03/21 10:22:25;;;;;;;;;;;11.30;34.90;;;;;;5101133;28;20051;-71
2021/03/21 10:25:13;;;;;;;2.78;1.92;;;11.10;35.00;;;;;;5113741;28;19912;-72
2021/03/21 10:27:40;;;;;;;3.00;1.90;;;11.10;35.10;;;;;;5107383;28;20583;-70
2021/03/21 10:30:27;;;;;;;2.67;1.63;;;10.90;35.00;;;;;;5094114;28;20039;-72
2021/03/21 10:32:59;;;;;;;2.70;2.00;;;10.90;35.40;;;;;;5059823;28;20038;-70
2021/03/21 10:35:25;;;;;;;3.05;2.25;;;10.80;35.40;;;;;;5094070;28;20043;-71
2021/03/21 10:37:59;;;;;;;2.55;1.88;;;10.80;35.60;;;;;;5093930;28;20028;-72
2021/03/21 10:40:25;;;;;;;2.92;1.90;;;10.60;35.70;;;;;;5081176;28;20040;-72
2021/03/21 10:42:55;;;;;;;2.88;2.03;;;10.60;35.50;;;;;;5102821;28;20031;-70
2021/03/21 10:45:34;;;;;;;2.50;2.00;;;10.50;35.80;;;;;;5092400;28;20060;-71
2021/03/21 10:48:08;;;;;;;2.80;1.75;;;10.60;36.00;;;;;;5083953;28;20051;-69
2021/03/21 10:51:04;;;;;;;2.97;1.90;;;10.60;35.80;;;;;;5103604;28;20520;-72
2021/03/21 10:53:40;;;;;;;1.80;1.60;;;10.60;35.70;;;;;;5114094;28;20067;-70
2021/03/21 10:56:09;;;;;;;;;;;10.60;35.80;;;;;;5085220;28;20405;-70
2021/03/21 10:59:05;;;;;;;2.95;1.92;;;10.50;35.90;;;;;;5109091;28;20287;-69
2021/03/21 11:01:44;;;;;;;2.15;1.60;;;10.50;36.10;;;;;;5094500;28;20078;-71
2021/03/21 11:04:23;;;;;;;3.92;1.65;;;10.50;36.20;;;;;;5094082;28;20044;-72
2021/03/21 11:07:09;;;;;;;2.30;1.50;;;10.50;36.20;;;;;;5075472;28;20561;-71
2021/03/21 11:09:35;;;;;;;1.77;1.38;;;10.40;35.70;;;;;;5075402;28;20039;-73
2021/03/21 11:12:04;;;;;;;2.30;1.63;;;10.50;36.00;;;;;;5093425;28;20071;-71
2021/03/21 11:14:34;;;;;;;2.45;1.77;;;10.40;35.80;;;;;;5074927;28;20032;-69
2021/03/21 11:17:25;;;;;;;2.78;1.52;;;10.40;36.30;;;;;;5093245;28;20087;-70
2021/03/21 11:19:56;;;;;;;3.92;1.70;;;10.40;36.60;;;;;;5075219;28;20040;-70
2021/03/21 11:22:42;;;;;;;5.43;1.95;;;10.40;36.60;;;;;;5093328;28;20059;-70
2021/03/21 11:25:14;;;;;;;2.67;1.83;;;10.40;36.40;;;;;;5093283;28;20086;-75
2021/03/21 11:27:49;;;;;;;4.70;2.47;;;10.40;36.50;;;;;;5075026;28;20185;-71
2021/03/21 11:30:27;;;;;;;2.38;1.40;;;10.40;36.50;;;;;;5093299;28;20040;-73
2021/03/21 11:32:58;;;;;;;4.47;2.10;;;10.40;36.80;;;;;;5103293;28;20030;-72
2021/03/21 11:35:29;;;;;;;3.28;1.98;;;10.40;36.80;;;;;;5094804;28;20035;-73
2021/03/21 11:37:58;;;;;;;3.13;1.88;;;10.30;36.80;;;;;;5112163;28;20031;-70
2021/03/21 11:40:30;;;;;;;2.80;1.80;;;10.30;37.00;;;;;;5093341;28;20135;-73
2021/03/21 11:43:17;;;;;;;3.47;1.63;;;10.40;37.10;;;;;;5084540;28;20545;-71
2021/03/21 11:45:43;;;;;;;5.45;1.65;;;10.40;37.20;;;;;;5092745;28;20142;-71
2021/03/21 11:48:09;;;;;;;2.38;1.70;;;10.30;37.40;;;;;;5093152;28;20512;-71
2021/03/21 11:50:41;;;;;;;2.17;1.50;;;10.30;37.60;;;;;;5099713;28;20039;-73
2021/03/21 11:53:17;;;;;;;1.52;1.40;;;10.30;37.70;;;;;;5071820;28;20503;-73
2021/03/21 11:55:47;;;;;;;2.92;1.67;;;10.30;37.80;;;;;;5094811;28;20035;-69
2021/03/21 11:58:28;;;;;;;2.20;1.80;;;10.20;38.00;;;;;;5094747;28;20042;-69
2021/03/21 12:01:01;;;;;;;4.07;1.90;;;10.30;38.30;;;;;;5094788;28;20061;-73
2021/03/21 12:03:28;;;;;;;3.05;2.15;;;10.30;38.40;;;;;;5078491;28;20122;-73
2021/03/21 12:06:04;;;;;;;2.75;1.83;;;10.20;38.30;;;;;;5113276;28;20042;-78
2021/03/21 12:08:42;;;;;;;1.77;1.65;;;10.20;38.30;;;;;;5112742;28;20040;-75
2021/03/21 12:11:19;;;;;;;4.18;2.13;;;10.20;38.30;;;;;;5112146;28;20138;-77
2021/03/21 12:13:46;;;;;;;4.63;2.03;;;10.10;37.60;;;;;;5095063;28;20047;-77
2021/03/21 12:16:51;;;;;;;2.60;2.25;;;10.10;38.40;;;;;;5094946;28;20036;-75
2021/03/21 12:19:31;;;;;;;3.88;1.88;;;10.10;38.60;;;;;;5049961;28;20052;-77
2021/03/21 12:22:04;;;;;;;3.33;2.00;;;10.10;38.70;;;;;;5033420;28;20037;-72
2021/03/21 12:24:32;;;;;;;3.72;2.10;;;10.10;39.10;;;;;;5088878;28;20066;-69
2021/03/21 12:27:01;;;;;;;3.13;2.25;;;10.10;39.90;;;;;;5106229;28;20032;-70
2021/03/21 12:29:44;;;;;;;3.08;1.80;;;10.10;39.40;;;;;;5081366;28;20051;-72
2021/03/21 12:32:27;;;;;;;2.70;1.80;;;10.10;39.20;;;;;;5076826;28;20236;-71
2021/03/21 12:34:53;;;;;;;2.45;1.85;;;10.00;38.90;;;;;;5096960;28;21030;-75
2021/03/21 12:37:26;;;;;;;2.78;1.77;;;10.00;39.00;;;;;;5103783;28;20032;-73
2021/03/21 12:40:04;;;;;;;3.17;1.75;;;9.90;38.90;;;;;;5084048;28;20118;-73
2021/03/21 12:42:33;;;;;;;2.58;1.75;;;9.90;39.40;;;;;;5074421;28;20122;-73
2021/03/21 12:45:16;;;;;;;2.40;1.70;;;9.80;39.30;;;;;;5074078;28;20066;-74
2021/03/21 12:48:04;;;;;;;4.25;1.80;;;9.70;39.40;;;;;;5074246;28;20130;-74
2021/03/21 12:50:38;;;;;;;3.17;1.88;;;9.70;39.50;;;;;;5081795;28;20487;-76
2021/03/21 12:53:04;;;;;;;3.05;1.90;;;9.70;39.70;;;;;;5101104;28;20028;-76
2021/03/21 12:55:30;;;;;;;3.92;1.90;;;9.70;39.80;;;;;;5092282;28;20448;-74
2021/03/21 12:57:56;;;;;;;3.45;1.98;;;9.70;39.90;;;;;;5094128;28;20035;-69
2021/03/21 13:00:29;;;;;;;2.55;1.90;;;9.60;40.10;;;;;;5110657;28;20513;-69
2021/03/21 13:02:57;;;;;;;2.47;2.00;;;9.60;40.20;;;;;;5107905;28;20123;-72
2021/03/21 13:05:38;;;;;;;2.78;1.80;;;9.60;40.40;;;;;;5116742;28;20032;-72
2021/03/21 13:08:05;;;;;;;3.08;2.22;;;9.50;40.60;;;;;;5099339;28;20051;-69
2021/03/21 13:10:33;;;;;;;3.47;1.92;;;9.50;40.60;;;;;;5090577;28;20052;-70
2021/03/21 13:13:03;;;;;;;2.65;2.13;;;9.50;40.80;;;;;;5075393;28;20035;-68
2021/03/21 13:15:30;;;;;;;3.65;2.25;;;9.50;40.90;;;;;;5107773;28;20036;-69
2021/03/21 13:17:56;;;;;;;2.58;2.05;;;9.40;41.00;;;;;;5111744;28;20070;-71
2021/03/21 13:20:23;;;;;;;3.20;2.33;;;9.40;41.00;;;;;;5090610;28;20067;-70
2021/03/21 13:22:49;;;;;;;2.85;1.90;;;9.40;41.10;;;;;;5087669;28;20044;-73
2021/03/21 13:25:23;;;;;;;3.95;2.30;;;9.40;41.10;;;;;;5102396;28;20039;-72
2021/03/21 13:27:55;;;;;;;3.33;2.33;;;9.30;41.10;;;;;;5095442;28;20197;-73
2021/03/21 13:30:23;;;;;;;3.08;2.35;;;9.30;41.30;;;;;;5077163;28;20051;-74
2021/03/21 13:32:50;;;;;;;2.70;2.17;;;9.20;41.30;;;;;;5096185;28;20039;-77
2021/03/21 13:35:16;;;;;;;2.33;1.95;;;9.20;41.50;;;;;;5096855;28;20043;-76
2021/03/21 13:37:42;;;;;;;3.35;2.42;;;9.10;41.60;;;;;;5077707;28;20584;-76
2021/03/21 13:40:11;;;;;;;3.17;2.03;;;9.00;41.80;;;;;;5077367;28;20126;-74
2021/03/21 13:42:37;;;;;;;3.78;2.67;;;8.90;41.90;;;;;;5094344;28;20046;-70
2021/03/21 13:45:05;;;;;;;3.92;2.45;;;8.80;42.10;;;;;;5095055;28;20078;-72